sensor_id;sensor_type;location;lat;lon;timestamp;pressure;altitude;pressure_sealevel;temperature;humidity
54389;BME280;40975;50.390;8.640;2023-06-19T00:00:38;98598.91;;;19.22;100.00
54389;BME280;40975;50.390;8.640;2023-06-19T00:03:04;98591.06;;;19.20;100.00
54389;BME280;40975;50.390;8.640;2023-06-19T00:05:30;98588.19;;;19.15;100.00
54389;BME280;40975;50.390;8.640;2023-06-19T00:07:55;98590.09;;;19.08;100.00
54389;BME280;40975;50.390;8.640;2023-06-19T00:10:20;98583.09;;;19.00;100.00
54389;BME280;40975;50.390;8.640;2023-06-19T00:12:46;98575.25;;;18.99;100.00
54389;BME280;40975;50.390;8.640;2023-06-19T00:15:12;98570.06;;;18.97;100.00
54389;BME280;40975;50.390;8.640;2023-06-19T00:17:37;98568.63;;;18.94;100.00
54389;BME280;40975;50.390;8.640;2023-06-19T00:20:04;98568.03;;;18.86;100.00
54389;BME280;40975;50.390;8.640;2023-06-19T00:22:30;98566.00;;;18.81;100.00
54389;BME280;40975;50.390;8.640;2023-06-19T00:24:56;98560.41;;;18.76;100.00
54389;BME280;40975;50.390;8.640;2023-06-19T00:27:21;98553.25;;;18.63;100.00
54389;BME280;40975;50.390;8.640;2023-06-19T00:29:46;98550.16;;;18.59;100.00
54389;BME280;40975;50.390;8.640;2023-06-19T00:32:12;98543.56;;;18.48;100.00
54389;BME280;40975;50.390;8.640;2023-06-19T00:34:37;98539.88;;;18.43;100.00
54389;BME280;40975;50.390;8.640;2023-06-19T00:37:03;98542.00;;;18.27;100.00
54389;BME280;40975;50.390;8.640;2023-06-19T00:39:28;98537.25;;;18.23;100.00
54389;BME280;40975;50.390;8.640;2023-06-19T00:41:55;98528.19;;;18.17;100.00
54389;BME280;40975;50.390;8.640;2023-06-19T00:44:20;98529.63;;;18.13;100.00
54389;BME280;40975;50.390;8.640;2023-06-19T00:46:46;98522.41;;;18.07;100.00
54389;BME280;40975;50.390;8.640;2023-06-19T00:49:12;98518.50;;;17.96;100.00
54389;BME280;40975;50.390;8.640;2023-06-19T00:51:38;98525.31;;;17.92;100.00
54389;BME280;40975;50.390;8.640;2023-06-19T00:54:04;98523.66;;;17.91;100.00
54389;BME280;40975;50.390;8.640;2023-06-19T00:56:31;98523.03;;;17.82;100.00
54389;BME280;40975;50.390;8.640;2023-06-19T00:58:57;98519.75;;;17.80;100.00
54389;BME280;40975;50.390;8.640;2023-06-19T01:01:23;98529.25;;;17.76;100.00
54389;BME280;40975;50.390;8.640;2023-06-19T01:03:51;98525.34;;;17.71;100.00
54389;BME280;40975;50.390;8.640;2023-06-19T01:06:23;98535.44;;;17.63;100.00
54389;BME280;40975;50.390;8.640;2023-06-19T01:08:56;98528.63;;;17.60;100.00
54389;BME280;40975;50.390;8.640;2023-06-19T01:11:28;98537.94;;;17.51;100.00
54389;BME280;40975;50.390;8.640;2023-06-19T01:14:04;98536.47;;;17.42;100.00
54389;BME280;40975;50.390;8.640;2023-06-19T01:16:30;98539.16;;;17.42;100.00
54389;BME280;40975;50.390;8.640;2023-06-19T01:18:56;98530.69;;;17.38;100.00
54389;BME280;40975;50.390;8.640;2023-06-19T01:21:22;98533.16;;;17.39;100.00
54389;BME280;40975;50.390;8.640;2023-06-19T01:23:48;98532.53;;;17.37;100.00
54389;BME280;40975;50.390;8.640;2023-06-19T01:26:13;98522.03;;;17.36;100.00
54389;BME280;40975;50.390;8.640;2023-06-19T01:28:41;98523.47;;;17.32;100.00
54389;BME280;40975;50.390;8.640;2023-06-19T01:31:11;98526.53;;;17.29;100.00
54389;BME280;40975;50.390;8.640;2023-06-19T01:33:39;98517.06;;;17.26;100.00
54389;BME280;40975;50.390;8.640;2023-06-19T01:36:07;98521.78;;;17.24;100.00
54389;BME280;40975;50.390;8.640;2023-06-19T01:38:33;98513.75;;;17.17;100.00
54389;BME280;40975;50.390;8.640;2023-06-19T01:41:01;98505.50;;;17.19;100.00
54389;BME280;40975;50.390;8.640;2023-06-19T01:43:29;98505.69;;;17.17;100.00
54389;BME280;40975;50.390;8.640;2023-06-19T01:45:56;98511.28;;;17.16;100.00
54389;BME280;40975;50.390;8.640;2023-06-19T01:48:21;98520.56;;;17.13;100.00
54389;BME280;40975;50.390;8.640;2023-06-19T01:50:48;98516.00;;;17.07;100.00
54389;BME280;40975;50.390;8.640;2023-06-19T01:53:14;98525.91;;;17.13;100.00
54389;BME280;40975;50.390;8.640;2023-06-19T01:55:40;98518.06;;;17.18;100.00
54389;BME280;40975;50.390;8.640;2023-06-19T01:58:05;98520.97;;;17.23;100.00
54389;BME280;40975;50.390;8.640;2023-06-19T02:00:30;98521.59;;;17.32;100.00
54389;BME280;40975;50.390;8.640;2023-06-19T02:03:00;98516.25;;;17.39;100.00
54389;BME280;40975;50.390;8.640;2023-06-19T02:05:26;98517.47;;;17.36;100.00
54389;BME280;40975;50.390;8.640;2023-06-19T02:07:52;98516.47;;;17.37;100.00
54389;BME280;40975;50.390;8.640;2023-06-19T02:10:18;98508.41;;;17.37;100.00
54389;BME280;40975;50.390;8.640;2023-06-19T02:12:43;98503.44;;;17.41;100.00
54389;BME280;40975;50.390;8.640;2023-06-19T02:15:09;98521.22;;;17.49;100.00
54389;BME280;40975;50.390;8.640;2023-06-19T02:17:34;98524.31;;;17.52;100.00
54389;BME280;40975;50.390;8.640;2023-06-19T02:20:01;98519.97;;;17.51;100.00
54389;BME280;40975;50.390;8.640;2023-06-19T02:22:27;98502.66;;;17.40;100.00
54389;BME280;40975;50.390;8.640;2023-06-19T02:24:53;98538.53;;;17.53;100.00
54389;BME280;40975;50.390;8.640;2023-06-19T02:27:18;98533.38;;;17.58;100.00
54389;BME280;40975;50.390;8.640;2023-06-19T02:29:43;98531.31;;;17.60;100.00
54389;BME280;40975;50.390;8.640;2023-06-19T02:32:09;98528.03;;;17.65;100.00
54389;BME280;40975;50.390;8.640;2023-06-19T02:34:34;98531.91;;;17.69;100.00
54389;BME280;40975;50.390;8.640;2023-06-19T02:36:59;98538.13;;;17.76;100.00
54389;BME280;40975;50.390;8.640;2023-06-19T02:39:25;98539.34;;;17.87;100.00
54389;BME280;40975;50.390;8.640;2023-06-19T02:41:50;98537.28;;;17.82;100.00
54389;BME280;40975;50.390;8.640;2023-06-19T02:44:16;98539.75;;;17.77;100.00
54389;BME280;40975;50.390;8.640;2023-06-19T02:46:42;98546.78;;;17.78;100.00
54389;BME280;40975;50.390;8.640;2023-06-19T02:49:08;98547.00;;;17.77;100.00
54389;BME280;40975;50.390;8.640;2023-06-19T02:51:33;98533.78;;;17.75;100.00
54389;BME280;40975;50.390;8.640;2023-06-19T02:53:58;98550.09;;;17.80;100.00
54389;BME280;40975;50.390;8.640;2023-06-19T02:56:26;98542.66;;;17.89;100.00
54389;BME280;40975;50.390;8.640;2023-06-19T02:58:51;98550.72;;;17.96;100.00
54389;BME280;40975;50.390;8.640;2023-06-19T03:01:17;98536.06;;;17.98;100.00
54389;BME280;40975;50.390;8.640;2023-06-19T03:03:43;98544.31;;;17.97;100.00
54389;BME280;40975;50.390;8.640;2023-06-19T03:06:11;98547.44;;;18.00;100.00
54389;BME280;40975;50.390;8.640;2023-06-19T03:08:39;98537.50;;;18.01;100.00
54389;BME280;40975;50.390;8.640;2023-06-19T03:11:04;98543.91;;;18.07;100.00
54389;BME280;40975;50.390;8.640;2023-06-19T03:13:53;98547.19;;;18.09;100.00
54389;BME280;40975;50.390;8.640;2023-06-19T03:16:20;98555.88;;;18.11;100.00
54389;BME280;40975;50.390;8.640;2023-06-19T03:18:47;98561.88;;;18.06;100.00
54389;BME280;40975;50.390;8.640;2023-06-19T03:21:14;98565.59;;;18.05;100.00
54389;BME280;40975;50.390;8.640;2023-06-19T03:23:41;98565.38;;;18.07;100.00
54389;BME280;40975;50.390;8.640;2023-06-19T03:26:08;98572.41;;;18.01;100.00
54389;BME280;40975;50.390;8.640;2023-06-19T03:28:34;98574.03;;;17.95;100.00
54389;BME280;40975;50.390;8.640;2023-06-19T03:31:00;98580.22;;;18.02;100.00
54389;BME280;40975;50.390;8.640;2023-06-19T03:33:26;98576.97;;;18.00;100.00
54389;BME280;40975;50.390;8.640;2023-06-19T03:35:52;98579.81;;;17.99;100.00
54389;BME280;40975;50.390;8.640;2023-06-19T03:38:28;98582.31;;;18.00;100.00
54389;BME280;40975;50.390;8.640;2023-06-19T03:40:53;98575.94;;;18.01;100.00
54389;BME280;40975;50.390;8.640;2023-06-19T03:43:19;98568.25;;;17.92;100.00
54389;BME280;40975;50.390;8.640;2023-06-19T03:45:45;98581.47;;;18.00;100.00
54389;BME280;40975;50.390;8.640;2023-06-19T03:48:10;98590.56;;;18.06;100.00
54389;BME280;40975;50.390;8.640;2023-06-19T03:50:36;98594.72;;;18.01;100.00
54389;BME280;40975;50.390;8.640;2023-06-19T03:53:02;98596.34;;;18.02;100.00
54389;BME280;40975;50.390;8.640;2023-06-19T03:55:27;98590.97;;;18.02;100.00
54389;BME280;40975;50.390;8.640;2023-06-19T03:57:53;98596.78;;;17.99;100.00
54389;BME280;40975;50.390;8.640;2023-06-19T04:00:18;98603.59;;;18.02;100.00
54389;BME280;40975;50.390;8.640;2023-06-19T04:02:44;98606.91;;;18.04;100.00
54389;BME280;40975;50.390;8.640;2023-06-19T04:05:14;98608.34;;;18.07;100.00
54389;BME280;40975;50.390;8.640;2023-06-19T04:07:43;98604.41;;;18.09;100.00
54389;BME280;40975;50.390;8.640;2023-06-19T04:10:09;98604.41;;;18.16;100.00
54389;BME280;40975;50.390;8.640;2023-06-19T04:12:35;98616.97;;;18.22;100.00
54389;BME280;40975;50.390;8.640;2023-06-19T04:15:00;98615.94;;;18.30;100.00
54389;BME280;40975;50.390;8.640;2023-06-19T04:17:25;98616.56;;;18.32;100.00
54389;BME280;40975;50.390;8.640;2023-06-19T04:19:51;98620.69;;;18.34;100.00
54389;BME280;40975;50.390;8.640;2023-06-19T04:22:18;98618.00;;;18.41;100.00
54389;BME280;40975;50.390;8.640;2023-06-19T04:24:44;98625.81;;;18.49;100.00
54389;BME280;40975;50.390;8.640;2023-06-19T04:27:10;98630.97;;;18.58;98.68
54389;BME280;40975;50.390;8.640;2023-06-19T04:29:36;98636.53;;;18.70;96.23
54389;BME280;40975;50.390;8.640;2023-06-19T04:32:02;98632.19;;;18.75;94.75
54389;BME280;40975;50.390;8.640;2023-06-19T04:34:28;98638.97;;;18.85;94.45
54389;BME280;40975;50.390;8.640;2023-06-19T04:36:54;98643.91;;;18.94;94.70
54389;BME280;40975;50.390;8.640;2023-06-19T04:39:26;98645.31;;;19.04;95.10
54389;BME280;40975;50.390;8.640;2023-06-19T04:41:51;98657.09;;;19.09;95.15
54389;BME280;40975;50.390;8.640;2023-06-19T04:44:17;98670.50;;;19.16;95.15
54389;BME280;40975;50.390;8.640;2023-06-19T04:46:42;98667.41;;;19.19;95.36
54389;BME280;40975;50.390;8.640;2023-06-19T04:49:12;98684.09;;;19.28;93.99
54389;BME280;40975;50.390;8.640;2023-06-19T04:51:38;98678.09;;;19.33;93.44
54389;BME280;40975;50.390;8.640;2023-06-19T04:54:03;98681.97;;;19.44;93.57
54389;BME280;40975;50.390;8.640;2023-06-19T04:56:28;98682.16;;;19.49;95.89
54389;BME280;40975;50.390;8.640;2023-06-19T04:58:55;98681.72;;;19.52;97.96
54389;BME280;40975;50.390;8.640;2023-06-19T05:01:25;98682.13;;;19.55;98.38
54389;BME280;40975;50.390;8.640;2023-06-19T05:03:54;98682.88;;;19.63;95.50
54389;BME280;40975;50.390;8.640;2023-06-19T05:06:20;98692.53;;;19.77;93.60
54389;BME280;40975;50.390;8.640;2023-06-19T05:08:45;98698.53;;;19.86;93.31
54389;BME280;40975;50.390;8.640;2023-06-19T05:11:10;98693.03;;;19.99;92.34
54389;BME280;40975;50.390;8.640;2023-06-19T05:13:35;98693.59;;;20.08;92.57
54389;BME280;40975;50.390;8.640;2023-06-19T05:16:01;98700.16;;;20.19;90.88
54389;BME280;40975;50.390;8.640;2023-06-19T05:18:26;98706.63;;;20.37;89.57
54389;BME280;40975;50.390;8.640;2023-06-19T05:20:51;98708.06;;;20.39;91.08
54389;BME280;40975;50.390;8.640;2023-06-19T05:23:17;98707.47;;;20.37;90.44
54389;BME280;40975;50.390;8.640;2023-06-19T05:25:42;98714.06;;;20.41;90.66
54389;BME280;40975;50.390;8.640;2023-06-19T05:28:08;98717.34;;;20.43;89.51
54389;BME280;40975;50.390;8.640;2023-06-19T05:30:34;98704.25;;;20.47;90.46
54389;BME280;40975;50.390;8.640;2023-06-19T05:33:00;98700.34;;;20.68;91.47
54389;BME280;40975;50.390;8.640;2023-06-19T05:35:25;98701.13;;;20.75;92.75
54389;BME280;40975;50.390;8.640;2023-06-19T05:37:51;98709.16;;;20.82;89.11
54389;BME280;40975;50.390;8.640;2023-06-19T05:40:16;98705.03;;;20.79;90.80
54389;BME280;40975;50.390;8.640;2023-06-19T05:42:42;98710.94;;;20.88;89.36
54389;BME280;40975;50.390;8.640;2023-06-19T05:45:07;98717.00;;;21.02;87.52
54389;BME280;40975;50.390;8.640;2023-06-19T05:47:33;98718.19;;;21.43;85.01
54389;BME280;40975;50.390;8.640;2023-06-19T05:49:58;98711.53;;;22.19;81.30
54389;BME280;40975;50.390;8.640;2023-06-19T05:52:23;98715.34;;;22.89;78.36
54389;BME280;40975;50.390;8.640;2023-06-19T05:54:49;98722.47;;;23.89;74.78
54389;BME280;40975;50.390;8.640;2023-06-19T05:57:14;98720.94;;;24.61;69.72
54389;BME280;40975;50.390;8.640;2023-06-19T05:59:47;98721.00;;;25.23;65.98
54389;BME280;40975;50.390;8.640;2023-06-19T06:02:12;98733.78;;;25.44;63.35
54389;BME280;40975;50.390;8.640;2023-06-19T06:04:37;98741.22;;;25.54;64.20
54389;BME280;40975;50.390;8.640;2023-06-19T06:07:03;98741.47;;;25.75;63.24
54389;BME280;40975;50.390;8.640;2023-06-19T06:09:28;98743.69;;;25.56;62.58
54389;BME280;40975;50.390;8.640;2023-06-19T06:11:53;98743.41;;;25.80;62.13
54389;BME280;40975;50.390;8.640;2023-06-19T06:14:19;98752.63;;;25.79;62.39
54389;BME280;40975;50.390;8.640;2023-06-19T06:16:44;98762.75;;;25.61;62.75
54389;BME280;40975;50.390;8.640;2023-06-19T06:19:09;98767.97;;;25.40;63.95
54389;BME280;40975;50.390;8.640;2023-06-19T06:21:35;98769.91;;;25.45;63.47
54389;BME280;40975;50.390;8.640;2023-06-19T06:24:00;98778.06;;;25.67;63.67
54389;BME280;40975;50.390;8.640;2023-06-19T06:26:26;98767.22;;;25.28;64.42
54389;BME280;40975;50.390;8.640;2023-06-19T06:28:53;98775.28;;;25.40;65.35
54389;BME280;40975;50.390;8.640;2023-06-19T06:31:18;98788.47;;;25.53;64.14
54389;BME280;40975;50.390;8.640;2023-06-19T06:33:43;98772.50;;;25.57;63.89
54389;BME280;40975;50.390;8.640;2023-06-19T06:36:09;98772.25;;;24.97;65.12
54389;BME280;40975;50.390;8.640;2023-06-19T06:38:34;98778.72;;;24.62;67.76
54389;BME280;40975;50.390;8.640;2023-06-19T06:40:59;98780.94;;;24.31;69.00
54389;BME280;40975;50.390;8.640;2023-06-19T06:43:25;98776.53;;;23.96;71.09
54389;BME280;40975;50.390;8.640;2023-06-19T06:45:50;98780.19;;;23.89;71.26
54389;BME280;40975;50.390;8.640;2023-06-19T06:48:15;98778.25;;;23.73;71.82
54389;BME280;40975;50.390;8.640;2023-06-19T06:50:41;98773.06;;;23.71;73.37
54389;BME280;40975;50.390;8.640;2023-06-19T06:53:07;98755.81;;;23.60;73.08
54389;BME280;40975;50.390;8.640;2023-06-19T06:55:32;98762.25;;;23.71;73.32
54389;BME280;40975;50.390;8.640;2023-06-19T06:57:57;98771.84;;;24.37;71.96
54389;BME280;40975;50.390;8.640;2023-06-19T07:00:23;98767.38;;;24.31;71.14
54389;BME280;40975;50.390;8.640;2023-06-19T07:02:48;98770.16;;;24.19;71.14
54389;BME280;40975;50.390;8.640;2023-06-19T07:05:15;98776.78;;;24.40;70.26
54389;BME280;40975;50.390;8.640;2023-06-19T07:07:40;98778.75;;;24.45;68.87
54389;BME280;40975;50.390;8.640;2023-06-19T07:10:06;98785.06;;;24.33;71.94
54389;BME280;40975;50.390;8.640;2023-06-19T07:12:32;98783.66;;;24.31;75.53
54389;BME280;40975;50.390;8.640;2023-06-19T07:14:57;98784.56;;;24.19;76.30
54389;BME280;40975;50.390;8.640;2023-06-19T07:17:22;98785.69;;;24.24;76.19
54389;BME280;40975;50.390;8.640;2023-06-19T07:19:48;98788.00;;;24.15;72.82
54389;BME280;40975;50.390;8.640;2023-06-19T07:22:13;98784.41;;;24.43;73.74
54389;BME280;40975;50.390;8.640;2023-06-19T07:24:40;98787.47;;;24.98;72.63
54389;BME280;40975;50.390;8.640;2023-06-19T07:27:06;98788.78;;;25.35;68.28
54389;BME280;40975;50.390;8.640;2023-06-19T07:29:31;98789.84;;;25.34;68.78
54389;BME280;40975;50.390;8.640;2023-06-19T07:31:57;98780.25;;;25.09;71.13
54389;BME280;40975;50.390;8.640;2023-06-19T07:34:23;98781.19;;;24.97;72.57
54389;BME280;40975;50.390;8.640;2023-06-19T07:36:48;98782.47;;;24.90;74.53
54389;BME280;40975;50.390;8.640;2023-06-19T07:39:14;98794.75;;;25.37;70.71
54389;BME280;40975;50.390;8.640;2023-06-19T07:41:39;98799.09;;;26.04;69.17
54389;BME280;40975;50.390;8.640;2023-06-19T07:44:05;98803.41;;;26.60;65.60
54389;BME280;40975;50.390;8.640;2023-06-19T07:46:30;98802.47;;;27.14;64.97
54389;BME280;40975;50.390;8.640;2023-06-19T07:48:55;98808.69;;;27.05;63.85
54389;BME280;40975;50.390;8.640;2023-06-19T07:51:21;98815.09;;;27.31;65.16
54389;BME280;40975;50.390;8.640;2023-06-19T07:53:46;98817.44;;;27.60;61.97
54389;BME280;40975;50.390;8.640;2023-06-19T07:56:11;98820.72;;;27.67;63.17
54389;BME280;40975;50.390;8.640;2023-06-19T07:58:37;98822.94;;;27.70;61.32
54389;BME280;40975;50.390;8.640;2023-06-19T08:01:02;98811.41;;;27.58;64.96
54389;BME280;40975;50.390;8.640;2023-06-19T08:03:27;98808.75;;;27.15;63.51
54389;BME280;40975;50.390;8.640;2023-06-19T08:05:53;98814.06;;;26.94;63.73
54389;BME280;40975;50.390;8.640;2023-06-19T08:08:18;98810.97;;;26.80;62.82
54389;BME280;40975;50.390;8.640;2023-06-19T08:10:43;98811.63;;;26.98;64.52
54389;BME280;40975;50.390;8.640;2023-06-19T08:13:09;98829.13;;;27.60;62.31
54389;BME280;40975;50.390;8.640;2023-06-19T08:15:36;98826.25;;;27.88;60.88
54389;BME280;40975;50.390;8.640;2023-06-19T08:18:01;98837.03;;;28.36;58.40
54389;BME280;40975;50.390;8.640;2023-06-19T08:20:27;98833.75;;;29.01;56.48
54389;BME280;40975;50.390;8.640;2023-06-19T08:22:53;98826.34;;;28.14;58.87
54389;BME280;40975;50.390;8.640;2023-06-19T08:25:18;98841.44;;;28.89;59.03
54389;BME280;40975;50.390;8.640;2023-06-19T08:27:43;98848.97;;;29.59;55.85
54389;BME280;40975;50.390;8.640;2023-06-19T08:30:10;98852.00;;;30.18;53.30
54389;BME280;40975;50.390;8.640;2023-06-19T08:32:36;98851.25;;;30.47;52.17
54389;BME280;40975;50.390;8.640;2023-06-19T08:35:01;98846.59;;;28.85;56.08
54389;BME280;40975;50.390;8.640;2023-06-19T08:37:26;98845.41;;;29.58;55.12
54389;BME280;40975;50.390;8.640;2023-06-19T08:39:52;98841.44;;;28.73;56.04
54389;BME280;40975;50.390;8.640;2023-06-19T08:42:17;98849.00;;;27.56;58.99
54389;BME280;40975;50.390;8.640;2023-06-19T08:44:43;98846.72;;;26.94;64.36
54389;BME280;40975;50.390;8.640;2023-06-19T08:47:08;98845.63;;;26.30;65.46
54389;BME280;40975;50.390;8.640;2023-06-19T08:49:35;98841.16;;;26.19;69.02
54389;BME280;40975;50.390;8.640;2023-06-19T08:52:04;98848.44;;;26.13;69.61
54389;BME280;40975;50.390;8.640;2023-06-19T08:54:30;98846.91;;;26.50;65.91
54389;BME280;40975;50.390;8.640;2023-06-19T08:57:00;98845.19;;;26.16;66.89
54389;BME280;40975;50.390;8.640;2023-06-19T08:59:25;98847.59;;;25.90;70.15
54389;BME280;40975;50.390;8.640;2023-06-19T09:01:53;98849.94;;;25.82;70.72
54389;BME280;40975;50.390;8.640;2023-06-19T09:04:25;98845.41;;;25.43;69.38
54389;BME280;40975;50.390;8.640;2023-06-19T09:06:57;98854.34;;;25.43;70.68
54389;BME280;40975;50.390;8.640;2023-06-19T09:09:24;98849.31;;;25.52;70.51
54389;BME280;40975;50.390;8.640;2023-06-19T09:12:16;98851.63;;;25.43;70.56
54389;BME280;40975;50.390;8.640;2023-06-19T09:14:48;98844.06;;;25.45;68.06
54389;BME280;40975;50.390;8.640;2023-06-19T09:17:19;98836.66;;;26.95;64.12
54389;BME280;40975;50.390;8.640;2023-06-19T09:19:48;98842.25;;;28.79;58.36
54389;BME280;40975;50.390;8.640;2023-06-19T09:22:16;98863.97;;;30.22;52.85
54389;BME280;40975;50.390;8.640;2023-06-19T09:24:43;98847.34;;;29.47;54.66
54389;BME280;40975;50.390;8.640;2023-06-19T09:27:18;98839.00;;;31.32;51.55
54389;BME280;40975;50.390;8.640;2023-06-19T09:29:46;98850.84;;;32.39;48.55
54389;BME280;40975;50.390;8.640;2023-06-19T09:32:20;98841.78;;;32.58;45.40
54389;BME280;40975;50.390;8.640;2023-06-19T09:34:48;98849.56;;;32.12;45.98
54389;BME280;40975;50.390;8.640;2023-06-19T09:37:14;98851.28;;;33.12;45.88
54389;BME280;40975;50.390;8.640;2023-06-19T09:39:40;98860.75;;;35.00;42.61
54389;BME280;40975;50.390;8.640;2023-06-19T09:42:09;98848.91;;;35.40;40.63
54389;BME280;40975;50.390;8.640;2023-06-19T09:44:40;98849.09;;;33.56;42.81
54389;BME280;40975;50.390;8.640;2023-06-19T09:47:22;98844.63;;;32.85;43.23
54389;BME280;40975;50.390;8.640;2023-06-19T09:49:54;98842.16;;;31.45;47.00
54389;BME280;40975;50.390;8.640;2023-06-19T09:52:21;98841.91;;;31.66;48.93
54389;BME280;40975;50.390;8.640;2023-06-19T09:55:01;98860.59;;;32.83;44.11
54389;BME280;40975;50.390;8.640;2023-06-19T09:57:28;98836.72;;;32.65;43.35
54389;BME280;40975;50.390;8.640;2023-06-19T09:59:56;98847.25;;;33.66;41.74
54389;BME280;40975;50.390;8.640;2023-06-19T10:02:24;98853.53;;;34.90;39.12
54389;BME280;40975;50.390;8.640;2023-06-19T10:04:52;98847.56;;;34.65;40.71
54389;BME280;40975;50.390;8.640;2023-06-19T10:07:22;98843.22;;;33.02;42.84
54389;BME280;40975;50.390;8.640;2023-06-19T10:10:05;98835.72;;;32.42;44.10
54389;BME280;40975;50.390;8.640;2023-06-19T10:12:41;98838.34;;;34.10;40.59
54389;BME280;40975;50.390;8.640;2023-06-19T10:15:29;98841.69;;;32.82;42.11
54389;BME280;40975;50.390;8.640;2023-06-19T10:18:02;98836.09;;;31.24;45.69
54389;BME280;40975;50.390;8.640;2023-06-19T10:25:24;98844.59;;;32.14;45.01
54389;BME280;40975;50.390;8.640;2023-06-19T10:27:52;98855.41;;;31.08;46.27
54389;BME280;40975;50.390;8.640;2023-06-19T10:30:19;98845.84;;;30.36;48.63
54389;BME280;40975;50.390;8.640;2023-06-19T10:32:45;98850.44;;;29.91;48.79
54389;BME280;40975;50.390;8.640;2023-06-19T10:35:12;98841.06;;;30.13;49.26
54389;BME280;40975;50.390;8.640;2023-06-19T10:37:38;98853.84;;;30.67;49.19
54389;BME280;40975;50.390;8.640;2023-06-19T10:40:03;98844.50;;;31.32;47.69
54389;BME280;40975;50.390;8.640;2023-06-19T10:42:33;98848.53;;;31.11;45.20
54389;BME280;40975;50.390;8.640;2023-06-19T10:45:02;98837.56;;;30.81;48.24
54389;BME280;40975;50.390;8.640;2023-06-19T10:47:27;98837.00;;;31.87;47.36
54389;BME280;40975;50.390;8.640;2023-06-19T10:49:54;98839.44;;;33.59;40.64
54389;BME280;40975;50.390;8.640;2023-06-19T10:52:20;98835.25;;;34.26;39.30
54389;BME280;40975;50.390;8.640;2023-06-19T10:54:45;98835.28;;;33.47;39.56
54389;BME280;40975;50.390;8.640;2023-06-19T10:57:11;98817.38;;;32.18;41.06
54389;BME280;40975;50.390;8.640;2023-06-19T10:59:38;98821.59;;;32.48;42.15
54389;BME280;40975;50.390;8.640;2023-06-19T11:02:05;98819.28;;;31.98;42.92
54389;BME280;40975;50.390;8.640;2023-06-19T11:04:31;98820.81;;;32.62;41.89
54389;BME280;40975;50.390;8.640;2023-06-19T11:06:56;98815.41;;;32.90;42.99
54389;BME280;40975;50.390;8.640;2023-06-19T11:09:22;98818.09;;;32.04;42.94
54389;BME280;40975;50.390;8.640;2023-06-19T11:11:48;98817.13;;;31.95;44.14
54389;BME280;40975;50.390;8.640;2023-06-19T11:14:15;98825.22;;;32.05;44.02
54389;BME280;40975;50.390;8.640;2023-06-19T11:16:43;98814.50;;;31.66;45.94
54389;BME280;40975;50.390;8.640;2023-06-19T11:19:13;98809.84;;;30.88;45.95
54389;BME280;40975;50.390;8.640;2023-06-19T11:21:45;98813.78;;;30.77;46.70
54389;BME280;40975;50.390;8.640;2023-06-19T11:24:12;98815.00;;;30.60;48.08
54389;BME280;40975;50.390;8.640;2023-06-19T11:26:42;98811.56;;;30.04;47.31
54389;BME280;40975;50.390;8.640;2023-06-19T11:29:25;98813.47;;;30.44;49.57
54389;BME280;40975;50.390;8.640;2023-06-19T11:32:05;98810.66;;;30.19;48.50
54389;BME280;40975;50.390;8.640;2023-06-19T11:34:32;98810.06;;;29.72;48.36
54389;BME280;40975;50.390;8.640;2023-06-19T11:36:58;98807.56;;;29.81;49.62
54389;BME280;40975;50.390;8.640;2023-06-19T11:39:23;98806.59;;;29.56;47.64
54389;BME280;40975;50.390;8.640;2023-06-19T11:41:50;98803.13;;;29.35;48.50
54389;BME280;40975;50.390;8.640;2023-06-19T11:44:16;98800.38;;;29.35;47.97
54389;BME280;40975;50.390;8.640;2023-06-19T11:46:42;98799.56;;;29.29;48.90
54389;BME280;40975;50.390;8.640;2023-06-19T11:49:15;98803.38;;;29.44;49.21
54389;BME280;40975;50.390;8.640;2023-06-19T11:51:42;98799.47;;;29.60;48.71
54389;BME280;40975;50.390;8.640;2023-06-19T11:54:09;98807.72;;;29.50;49.10
54389;BME280;40975;50.390;8.640;2023-06-19T11:56:36;98807.97;;;29.59;48.70
54389;BME280;40975;50.390;8.640;2023-06-19T11:59:02;98803.03;;;29.56;49.31
54389;BME280;40975;50.390;8.640;2023-06-19T12:01:28;98805.72;;;29.66;49.47
54389;BME280;40975;50.390;8.640;2023-06-19T12:03:53;98804.63;;;29.62;47.87
54389;BME280;40975;50.390;8.640;2023-06-19T12:06:19;98803.47;;;28.92;48.86
54389;BME280;40975;50.390;8.640;2023-06-19T12:08:45;98803.88;;;29.51;49.97
54389;BME280;40975;50.390;8.640;2023-06-19T12:11:10;98803.59;;;29.58;49.61
54389;BME280;40975;50.390;8.640;2023-06-19T12:13:38;98806.59;;;29.56;49.82
54389;BME280;40975;50.390;8.640;2023-06-19T12:16:03;98802.78;;;29.47;48.96
54389;BME280;40975;50.390;8.640;2023-06-19T12:18:29;98803.28;;;29.59;49.80
54389;BME280;40975;50.390;8.640;2023-06-19T12:20:55;98797.38;;;29.42;48.30
54389;BME280;40975;50.390;8.640;2023-06-19T12:23:20;98800.03;;;29.57;51.64
54389;BME280;40975;50.390;8.640;2023-06-19T12:25:45;98791.28;;;29.55;49.66
54389;BME280;40975;50.390;8.640;2023-06-19T12:28:11;98786.00;;;29.80;48.27
54389;BME280;40975;50.390;8.640;2023-06-19T12:30:36;98794.63;;;30.42;48.94
54389;BME280;40975;50.390;8.640;2023-06-19T12:33:02;98795.00;;;30.25;47.01
54389;BME280;40975;50.390;8.640;2023-06-19T12:35:29;98780.88;;;30.13;48.24
54389;BME280;40975;50.390;8.640;2023-06-19T12:37:54;98786.47;;;29.97;51.08
54389;BME280;40975;50.390;8.640;2023-06-19T12:40:20;98780.84;;;29.68;50.82
54389;BME280;40975;50.390;8.640;2023-06-19T12:42:45;98784.47;;;29.53;48.44
54389;BME280;40975;50.390;8.640;2023-06-19T12:45:11;98792.94;;;29.46;51.55
54389;BME280;40975;50.390;8.640;2023-06-19T12:47:36;98782.34;;;29.89;51.61
54389;BME280;40975;50.390;8.640;2023-06-19T12:50:02;98789.03;;;30.58;49.75
54389;BME280;40975;50.390;8.640;2023-06-19T12:52:28;98793.00;;;30.76;46.71
54389;BME280;40975;50.390;8.640;2023-06-19T12:54:53;98793.25;;;31.04;47.04
54389;BME280;40975;50.390;8.640;2023-06-19T12:57:18;98798.47;;;31.54;47.87
54389;BME280;40975;50.390;8.640;2023-06-19T12:59:44;98789.34;;;31.83;46.66